sensor_id;sensor_type;location;lat;lon;timestamp;P1;durP1;ratioP1;P2;durP2;ratioP2
76204;SDS011;64986;55.672;37.628;2023-07-13T00:02:07;2.13;;;1.58;;
76204;SDS011;64986;55.672;37.628;2023-07-13T00:04:33;6.38;;;1.83;;
76204;SDS011;64986;55.672;37.628;2023-07-13T00:06:58;2.70;;;1.60;;
76204;SDS011;64986;55.672;37.628;2023-07-13T00:09:24;6.53;;;1.60;;
76204;SDS011;64986;55.672;37.628;2023-07-13T00:11:51;2.22;;;1.60;;
76204;SDS011;64986;55.672;37.628;2023-07-13T00:14:17;3.30;;;1.83;;
76204;SDS011;64986;55.672;37.628;2023-07-13T00:16:42;1.98;;;1.05;;
76204;SDS011;64986;55.672;37.628;2023-07-13T00:19:11;1.63;;;1.42;;
76204;SDS011;64986;55.672;37.628;2023-07-13T00:21:36;2.30;;;1.80;;
76204;SDS011;64986;55.672;37.628;2023-07-13T00:24:02;2.53;;;1.50;;
76204;SDS011;64986;55.672;37.628;2023-07-13T00:26:28;1.90;;;1.48;;
76204;SDS011;64986;55.672;37.628;2023-07-13T00:28:53;1.92;;;1.63;;
76204;SDS011;64986;55.672;37.628;2023-07-13T00:31:19;3.45;;;1.70;;
76204;SDS011;64986;55.672;37.628;2023-07-13T00:33:44;2.42;;;1.70;;
76204;SDS011;64986;55.672;37.628;2023-07-13T00:36:09;3.22;;;1.88;;
76204;SDS011;64986;55.672;37.628;2023-07-13T00:38:35;1.98;;;1.67;;
76204;SDS011;64986;55.672;37.628;2023-07-13T00:41:01;2.00;;;1.73;;
76204;SDS011;64986;55.672;37.628;2023-07-13T00:43:27;2.80;;;1.80;;
76204;SDS011;64986;55.672;37.628;2023-07-13T00:48:21;1.60;;;1.30;;
76204;SDS011;64986;55.672;37.628;2023-07-13T00:50:49;1.75;;;1.63;;
76204;SDS011;64986;55.672;37.628;2023-07-13T00:53:15;2.78;;;1.50;;
76204;SDS011;64986;55.672;37.628;2023-07-13T00:55:41;3.63;;;1.92;;
76204;SDS011;64986;55.672;37.628;2023-07-13T00:58:07;2.78;;;1.75;;
76204;SDS011;64986;55.672;37.628;2023-07-13T01:00:33;2.60;;;1.70;;
76204;SDS011;64986;55.672;37.628;2023-07-13T01:02:59;4.03;;;1.83;;
76204;SDS011;64986;55.672;37.628;2023-07-13T01:05:26;1.95;;;1.75;;
76204;SDS011;64986;55.672;37.628;2023-07-13T01:07:51;2.03;;;1.67;;
76204;SDS011;64986;55.672;37.628;2023-07-13T01:10:17;1.70;;;1.60;;
76204;SDS011;64986;55.672;37.628;2023-07-13T01:12:42;2.05;;;1.63;;
76204;SDS011;64986;55.672;37.628;2023-07-13T01:17:51;3.92;;;1.90;;
76204;SDS011;64986;55.672;37.628;2023-07-13T01:20:17;2.25;;;1.63;;
76204;SDS011;64986;55.672;37.628;2023-07-13T01:22:42;2.38;;;1.67;;
76204;SDS011;64986;55.672;37.628;2023-07-13T01:25:07;2.03;;;1.70;;
76204;SDS011;64986;55.672;37.628;2023-07-13T01:27:33;2.15;;;1.58;;
76204;SDS011;64986;55.672;37.628;2023-07-13T01:29:59;2.78;;;2.20;;
76204;SDS011;64986;55.672;37.628;2023-07-13T01:32:28;3.72;;;1.80;;
76204;SDS011;64986;55.672;37.628;2023-07-13T01:34:56;2.85;;;1.83;;
76204;SDS011;64986;55.672;37.628;2023-07-13T01:37:21;5.93;;;1.73;;
76204;SDS011;64986;55.672;37.628;2023-07-13T01:39:47;2.00;;;1.75;;
76204;SDS011;64986;55.672;37.628;2023-07-13T01:42:12;1.80;;;1.50;;
76204;SDS011;64986;55.672;37.628;2023-07-13T01:44:38;2.63;;;1.60;;
76204;SDS011;64986;55.672;37.628;2023-07-13T01:47:03;2.22;;;1.60;;
76204;SDS011;64986;55.672;37.628;2023-07-13T01:49:29;6.88;;;1.83;;
76204;SDS011;64986;55.672;37.628;2023-07-13T01:51:54;2.50;;;1.85;;
76204;SDS011;64986;55.672;37.628;2023-07-13T01:54:19;3.63;;;1.90;;
76204;SDS011;64986;55.672;37.628;2023-07-13T01:56:45;2.65;;;1.83;;
76204;SDS011;64986;55.672;37.628;2023-07-13T01:59:10;2.97;;;1.70;;
76204;SDS011;64986;55.672;37.628;2023-07-13T02:01:35;4.65;;;1.77;;
76204;SDS011;64986;55.672;37.628;2023-07-13T02:04:01;3.95;;;2.22;;
76204;SDS011;64986;55.672;37.628;2023-07-13T02:06:26;4.28;;;1.92;;
76204;SDS011;64986;55.672;37.628;2023-07-13T02:08:52;2.42;;;1.60;;
76204;SDS011;64986;55.672;37.628;2023-07-13T02:11:17;2.53;;;1.95;;
76204;SDS011;64986;55.672;37.628;2023-07-13T02:13:43;2.22;;;1.70;;
76204;SDS011;64986;55.672;37.628;2023-07-13T02:16:08;2.85;;;1.60;;
76204;SDS011;64986;55.672;37.628;2023-07-13T02:18:33;3.15;;;1.70;;
76204;SDS011;64986;55.672;37.628;2023-07-13T02:20:59;2.97;;;1.92;;
76204;SDS011;64986;55.672;37.628;2023-07-13T02:23:24;3.47;;;1.92;;
76204;SDS011;64986;55.672;37.628;2023-07-13T02:25:53;3.30;;;1.75;;
76204;SDS011;64986;55.672;37.628;2023-07-13T02:28:19;2.97;;;1.80;;
76204;SDS011;64986;55.672;37.628;2023-07-13T02:30:44;3.33;;;1.95;;
76204;SDS011;64986;55.672;37.628;2023-07-13T02:33:09;4.45;;;2.03;;
76204;SDS011;64986;55.672;37.628;2023-07-13T02:35:35;2.58;;;2.05;;
76204;SDS011;64986;55.672;37.628;2023-07-13T02:38:00;4.65;;;2.00;;
76204;SDS011;64986;55.672;37.628;2023-07-13T02:40:25;2.80;;;2.28;;
76204;SDS011;64986;55.672;37.628;2023-07-13T02:42:51;3.28;;;1.90;;
76204;SDS011;64986;55.672;37.628;2023-07-13T02:45:16;2.78;;;1.95;;
76204;SDS011;64986;55.672;37.628;2023-07-13T02:47:41;2.60;;;1.92;;
76204;SDS011;64986;55.672;37.628;2023-07-13T02:50:07;6.88;;;2.20;;
76204;SDS011;64986;55.672;37.628;2023-07-13T02:52:33;2.25;;;1.90;;
76204;SDS011;64986;55.672;37.628;2023-07-13T02:54:58;7.63;;;2.03;;
76204;SDS011;64986;55.672;37.628;2023-07-13T02:57:23;2.88;;;2.28;;
76204;SDS011;64986;55.672;37.628;2023-07-13T02:59:49;4.20;;;2.10;;
76204;SDS011;64986;55.672;37.628;2023-07-13T03:02:15;4.35;;;2.00;;
76204;SDS011;64986;55.672;37.628;2023-07-13T03:04:40;2.85;;;1.83;;
76204;SDS011;64986;55.672;37.628;2023-07-13T03:07:06;2.22;;;1.85;;
76204;SDS011;64986;55.672;37.628;2023-07-13T03:09:32;5.13;;;2.33;;
76204;SDS011;64986;55.672;37.628;2023-07-13T03:11:58;2.80;;;1.70;;
76204;SDS011;64986;55.672;37.628;2023-07-13T03:14:23;3.28;;;1.70;;
76204;SDS011;64986;55.672;37.628;2023-07-13T03:16:49;4.70;;;1.90;;
76204;SDS011;64986;55.672;37.628;2023-07-13T03:19:14;2.70;;;2.20;;
76204;SDS011;64986;55.672;37.628;2023-07-13T03:21:39;3.00;;;2.22;;
76204;SDS011;64986;55.672;37.628;2023-07-13T03:24:05;4.82;;;2.15;;
76204;SDS011;64986;55.672;37.628;2023-07-13T03:26:30;4.70;;;1.75;;
76204;SDS011;64986;55.672;37.628;2023-07-13T03:28:56;3.78;;;2.10;;
76204;SDS011;64986;55.672;37.628;2023-07-13T03:31:26;2.40;;;2.00;;
76204;SDS011;64986;55.672;37.628;2023-07-13T03:33:52;5.10;;;2.22;;
76204;SDS011;64986;55.672;37.628;2023-07-13T03:36:18;2.85;;;1.90;;
76204;SDS011;64986;55.672;37.628;2023-07-13T03:38:45;5.72;;;1.83;;
76204;SDS011;64986;55.672;37.628;2023-07-13T03:41:11;3.47;;;2.20;;
76204;SDS011;64986;55.672;37.628;2023-07-13T03:43:36;2.50;;;1.42;;
76204;SDS011;64986;55.672;37.628;2023-07-13T03:46:02;3.30;;;2.10;;
76204;SDS011;64986;55.672;37.628;2023-07-13T03:48:27;4.47;;;2.08;;
76204;SDS011;64986;55.672;37.628;2023-07-13T03:50:52;5.88;;;2.10;;
76204;SDS011;64986;55.672;37.628;2023-07-13T03:53:17;2.97;;;2.22;;
76204;SDS011;64986;55.672;37.628;2023-07-13T03:55:44;3.38;;;2.20;;
76204;SDS011;64986;55.672;37.628;2023-07-13T03:58:29;4.22;;;2.13;;
76204;SDS011;64986;55.672;37.628;2023-07-13T04:00:55;4.43;;;2.45;;
76204;SDS011;64986;55.672;37.628;2023-07-13T04:03:21;4.35;;;2.10;;
76204;SDS011;64986;55.672;37.628;2023-07-13T04:05:47;2.65;;;2.10;;
76204;SDS011;64986;55.672;37.628;2023-07-13T04:08:13;2.25;;;1.70;;
76204;SDS011;64986;55.672;37.628;2023-07-13T04:10:38;1.70;;;1.60;;
76204;SDS011;64986;55.672;37.628;2023-07-13T04:13:04;4.35;;;1.88;;
76204;SDS011;64986;55.672;37.628;2023-07-13T04:15:30;4.22;;;2.42;;
76204;SDS011;64986;55.672;37.628;2023-07-13T04:17:57;2.40;;;1.88;;
76204;SDS011;64986;55.672;37.628;2023-07-13T04:20:24;3.13;;;2.05;;
76204;SDS011;64986;55.672;37.628;2023-07-13T04:22:50;3.88;;;1.85;;
76204;SDS011;64986;55.672;37.628;2023-07-13T04:25:16;3.50;;;2.00;;
76204;SDS011;64986;55.672;37.628;2023-07-13T04:27:42;4.32;;;1.60;;
76204;SDS011;64986;55.672;37.628;2023-07-13T04:30:07;3.28;;;2.30;;
76204;SDS011;64986;55.672;37.628;2023-07-13T04:32:33;2.63;;;1.80;;
76204;SDS011;64986;55.672;37.628;2023-07-13T04:34:59;6.82;;;2.40;;
76204;SDS011;64986;55.672;37.628;2023-07-13T04:37:25;8.70;;;2.63;;
76204;SDS011;64986;55.672;37.628;2023-07-13T04:39:51;2.85;;;1.90;;
76204;SDS011;64986;55.672;37.628;2023-07-13T04:42:17;4.00;;;2.05;;
76204;SDS011;64986;55.672;37.628;2023-07-13T04:44:49;5.20;;;2.85;;
76204;SDS011;64986;55.672;37.628;2023-07-13T04:47:16;3.35;;;2.47;;
76204;SDS011;64986;55.672;37.628;2023-07-13T04:49:42;4.53;;;2.10;;
76204;SDS011;64986;55.672;37.628;2023-07-13T04:52:08;2.45;;;1.98;;
76204;SDS011;64986;55.672;37.628;2023-07-13T04:54:34;2.63;;;1.70;;
76204;SDS011;64986;55.672;37.628;2023-07-13T04:57:00;3.38;;;2.00;;
76204;SDS011;64986;55.672;37.628;2023-07-13T04:59:25;3.15;;;2.10;;
76204;SDS011;64986;55.672;37.628;2023-07-13T05:01:52;2.95;;;2.05;;
76204;SDS011;64986;55.672;37.628;2023-07-13T05:04:18;4.18;;;2.45;;
76204;SDS011;64986;55.672;37.628;2023-07-13T05:06:43;3.13;;;2.38;;
76204;SDS011;64986;55.672;37.628;2023-07-13T05:09:09;3.13;;;1.85;;
76204;SDS011;64986;55.672;37.628;2023-07-13T05:11:34;7.40;;;2.15;;
76204;SDS011;64986;55.672;37.628;2023-07-13T05:14:00;5.45;;;2.05;;
76204;SDS011;64986;55.672;37.628;2023-07-13T05:16:26;2.97;;;1.90;;
76204;SDS011;64986;55.672;37.628;2023-07-13T05:18:52;3.15;;;2.17;;
76204;SDS011;64986;55.672;37.628;2023-07-13T05:21:18;3.78;;;2.10;;
76204;SDS011;64986;55.672;37.628;2023-07-13T05:23:44;3.85;;;2.20;;
76204;SDS011;64986;55.672;37.628;2023-07-13T05:26:10;4.85;;;2.10;;
76204;SDS011;64986;55.672;37.628;2023-07-13T05:28:36;2.45;;;1.80;;
76204;SDS011;64986;55.672;37.628;2023-07-13T05:31:02;2.00;;;1.60;;
76204;SDS011;64986;55.672;37.628;2023-07-13T05:33:28;3.50;;;2.15;;
76204;SDS011;64986;55.672;37.628;2023-07-13T05:35:54;4.65;;;1.88;;
76204;SDS011;64986;55.672;37.628;2023-07-13T05:38:19;4.32;;;1.85;;
76204;SDS011;64986;55.672;37.628;2023-07-13T05:40:45;6.45;;;2.00;;
76204;SDS011;64986;55.672;37.628;2023-07-13T05:43:11;3.60;;;2.22;;
76204;SDS011;64986;55.672;37.628;2023-07-13T05:45:37;5.00;;;2.10;;
76204;SDS011;64986;55.672;37.628;2023-07-13T05:48:03;6.93;;;2.00;;
76204;SDS011;64986;55.672;37.628;2023-07-13T05:50:29;4.25;;;2.58;;
76204;SDS011;64986;55.672;37.628;2023-07-13T05:52:54;2.65;;;1.98;;
76204;SDS011;64986;55.672;37.628;2023-07-13T05:55:20;3.03;;;2.20;;
76204;SDS011;64986;55.672;37.628;2023-07-13T05:57:45;2.13;;;1.70;;
76204;SDS011;64986;55.672;37.628;2023-07-13T06:00:11;5.15;;;1.70;;
76204;SDS011;64986;55.672;37.628;2023-07-13T06:02:37;4.90;;;1.90;;
76204;SDS011;64986;55.672;37.628;2023-07-13T06:05:03;4.22;;;2.03;;
76204;SDS011;64986;55.672;37.628;2023-07-13T06:07:28;4.72;;;2.15;;
76204;SDS011;64986;55.672;37.628;2023-07-13T06:09:54;3.30;;;1.95;;
76204;SDS011;64986;55.672;37.628;2023-07-13T06:12:19;3.60;;;1.90;;
76204;SDS011;64986;55.672;37.628;2023-07-13T06:14:45;2.30;;;1.58;;
76204;SDS011;64986;55.672;37.628;2023-07-13T06:17:10;9.95;;;2.03;;
76204;SDS011;64986;55.672;37.628;2023-07-13T06:19:36;5.43;;;2.33;;
76204;SDS011;64986;55.672;37.628;2023-07-13T06:22:01;4.20;;;2.42;;
76204;SDS011;64986;55.672;37.628;2023-07-13T06:24:27;5.07;;;2.10;;
76204;SDS011;64986;55.672;37.628;2023-07-13T06:26:52;2.63;;;1.98;;
76204;SDS011;64986;55.672;37.628;2023-07-13T06:29:18;5.20;;;2.10;;
76204;SDS011;64986;55.672;37.628;2023-07-13T06:31:43;3.80;;;2.05;;
76204;SDS011;64986;55.672;37.628;2023-07-13T06:34:08;3.65;;;1.88;;
76204;SDS011;64986;55.672;37.628;2023-07-13T06:36:34;3.00;;;1.92;;
76204;SDS011;64986;55.672;37.628;2023-07-13T06:39:01;6.35;;;2.25;;
76204;SDS011;64986;55.672;37.628;2023-07-13T06:41:27;3.67;;;2.15;;
76204;SDS011;64986;55.672;37.628;2023-07-13T06:43:53;3.53;;;1.98;;
76204;SDS011;64986;55.672;37.628;2023-07-13T06:46:22;2.15;;;1.75;;
76204;SDS011;64986;55.672;37.628;2023-07-13T06:48:48;3.28;;;1.90;;
76204;SDS011;64986;55.672;37.628;2023-07-13T06:51:15;3.67;;;1.83;;
76204;SDS011;64986;55.672;37.628;2023-07-13T06:53:40;3.08;;;1.50;;
76204;SDS011;64986;55.672;37.628;2023-07-13T06:56:07;4.57;;;1.80;;
76204;SDS011;64986;55.672;37.628;2023-07-13T06:58:33;2.28;;;1.88;;
76204;SDS011;64986;55.672;37.628;2023-07-13T07:01:00;2.65;;;1.90;;
76204;SDS011;64986;55.672;37.628;2023-07-13T07:03:25;2.90;;;1.70;;
76204;SDS011;64986;55.672;37.628;2023-07-13T07:05:51;2.70;;;1.70;;
76204;SDS011;64986;55.672;37.628;2023-07-13T07:08:16;6.75;;;2.22;;
76204;SDS011;64986;55.672;37.628;2023-07-13T07:10:42;2.75;;;1.60;;
76204;SDS011;64986;55.672;37.628;2023-07-13T07:13:08;4.72;;;1.77;;
76204;SDS011;64986;55.672;37.628;2023-07-13T07:15:34;4.07;;;2.03;;
76204;SDS011;64986;55.672;37.628;2023-07-13T07:18:00;3.88;;;2.08;;
76204;SDS011;64986;55.672;37.628;2023-07-13T07:20:25;3.88;;;1.88;;
76204;SDS011;64986;55.672;37.628;2023-07-13T07:22:52;2.75;;;1.70;;
76204;SDS011;64986;55.672;37.628;2023-07-13T07:25:17;3.53;;;2.10;;
76204;SDS011;64986;55.672;37.628;2023-07-13T07:27:43;2.70;;;1.85;;
76204;SDS011;64986;55.672;37.628;2023-07-13T07:30:10;3.05;;;1.75;;
76204;SDS011;64986;55.672;37.628;2023-07-13T07:32:36;3.70;;;1.60;;
76204;SDS011;64986;55.672;37.628;2023-07-13T07:35:01;5.00;;;2.17;;
76204;SDS011;64986;55.672;37.628;2023-07-13T07:37:27;4.63;;;1.55;;
76204;SDS011;64986;55.672;37.628;2023-07-13T07:39:52;2.88;;;1.88;;
76204;SDS011;64986;55.672;37.628;2023-07-13T07:42:18;2.92;;;1.88;;
76204;SDS011;64986;55.672;37.628;2023-07-13T07:44:43;2.28;;;1.60;;
76204;SDS011;64986;55.672;37.628;2023-07-13T07:47:09;3.58;;;1.83;;
76204;SDS011;64986;55.672;37.628;2023-07-13T07:49:35;6.50;;;2.20;;
76204;SDS011;64986;55.672;37.628;2023-07-13T07:52:01;4.65;;;2.20;;
76204;SDS011;64986;55.672;37.628;2023-07-13T07:54:26;5.80;;;1.95;;
76204;SDS011;64986;55.672;37.628;2023-07-13T07:56:52;4.28;;;1.88;;
76204;SDS011;64986;55.672;37.628;2023-07-13T07:59:18;4.75;;;2.00;;
76204;SDS011;64986;55.672;37.628;2023-07-13T08:01:44;3.38;;;2.50;;
76204;SDS011;64986;55.672;37.628;2023-07-13T08:04:11;2.60;;;1.77;;
76204;SDS011;64986;55.672;37.628;2023-07-13T08:06:37;7.40;;;2.45;;
76204;SDS011;64986;55.672;37.628;2023-07-13T08:09:03;2.85;;;1.65;;
76204;SDS011;64986;55.672;37.628;2023-07-13T08:11:29;6.55;;;2.05;;
76204;SDS011;64986;55.672;37.628;2023-07-13T08:13:54;4.30;;;2.53;;
76204;SDS011;64986;55.672;37.628;2023-07-13T08:16:20;12.80;;;2.80;;
76204;SDS011;64986;55.672;37.628;2023-07-13T08:18:46;4.35;;;2.15;;
76204;SDS011;64986;55.672;37.628;2023-07-13T08:21:12;4.07;;;2.08;;
76204;SDS011;64986;55.672;37.628;2023-07-13T08:23:37;4.20;;;2.10;;
76204;SDS011;64986;55.672;37.628;2023-07-13T08:26:03;3.97;;;2.72;;
76204;SDS011;64986;55.672;37.628;2023-07-13T08:28:29;4.47;;;1.90;;
76204;SDS011;64986;55.672;37.628;2023-07-13T08:30:59;6.25;;;2.03;;
76204;SDS011;64986;55.672;37.628;2023-07-13T08:33:29;7.32;;;2.63;;
76204;SDS011;64986;55.672;37.628;2023-07-13T08:35:54;2.38;;;1.60;;
76204;SDS011;64986;55.672;37.628;2023-07-13T08:38:20;3.58;;;1.52;;
76204;SDS011;64986;55.672;37.628;2023-07-13T08:40:49;3.50;;;1.80;;
76204;SDS011;64986;55.672;37.628;2023-07-13T08:43:18;4.05;;;2.10;;
76204;SDS011;64986;55.672;37.628;2023-07-13T08:45:51;5.65;;;2.17;;
76204;SDS011;64986;55.672;37.628;2023-07-13T08:56:43;3.28;;;1.95;;
76204;SDS011;64986;55.672;37.628;2023-07-13T08:59:13;3.28;;;1.85;;
76204;SDS011;64986;55.672;37.628;2023-07-13T09:01:53;3.45;;;2.10;;
76204;SDS011;64986;55.672;37.628;2023-07-13T09:04:23;4.55;;;2.47;;
76204;SDS011;64986;55.672;37.628;2023-07-13T09:15:30;3.90;;;2.75;;
76204;SDS011;64986;55.672;37.628;2023-07-13T09:18:04;4.32;;;2.20;;
76204;SDS011;64986;55.672;37.628;2023-07-13T09:20:44;3.47;;;2.33;;
76204;SDS011;64986;55.672;37.628;2023-07-13T09:23:15;2.92;;;2.30;;
76204;SDS011;64986;55.672;37.628;2023-07-13T09:25:45;6.03;;;2.40;;
76204;SDS011;64986;55.672;37.628;2023-07-13T09:28:19;5.30;;;2.63;;
76204;SDS011;64986;55.672;37.628;2023-07-13T09:33:40;6.18;;;2.80;;
76204;SDS011;64986;55.672;37.628;2023-07-13T09:36:16;4.63;;;2.33;;
76204;SDS011;64986;55.672;37.628;2023-07-13T09:41:50;6.65;;;2.75;;
76204;SDS011;64986;55.672;37.628;2023-07-13T09:44:35;3.85;;;2.85;;
76204;SDS011;64986;55.672;37.628;2023-07-13T09:47:17;3.20;;;2.60;;
76204;SDS011;64986;55.672;37.628;2023-07-13T09:49:46;5.03;;;3.25;;
76204;SDS011;64986;55.672;37.628;2023-07-13T09:52:14;5.07;;;2.80;;
76204;SDS011;64986;55.672;37.628;2023-07-13T09:54:44;4.72;;;3.05;;
76204;SDS011;64986;55.672;37.628;2023-07-13T09:57:14;4.00;;;2.53;;
76204;SDS011;64986;55.672;37.628;2023-07-13T09:59:46;3.17;;;2.55;;
76204;SDS011;64986;55.672;37.628;2023-07-13T10:04:57;4.78;;;3.40;;
76204;SDS011;64986;55.672;37.628;2023-07-13T10:07:25;4.18;;;3.22;;
76204;SDS011;64986;55.672;37.628;2023-07-13T10:09:52;5.95;;;2.90;;
76204;SDS011;64986;55.672;37.628;2023-07-13T10:12:21;5.68;;;3.42;;
76204;SDS011;64986;55.672;37.628;2023-07-13T10:14:52;7.45;;;3.00;;
76204;SDS011;64986;55.672;37.628;2023-07-13T10:17:28;3.85;;;2.25;;
76204;SDS011;64986;55.672;37.628;2023-07-13T10:19:59;4.07;;;2.72;;
76204;SDS011;64986;55.672;37.628;2023-07-13T10:25:17;3.35;;;2.50;;
76204;SDS011;64986;55.672;37.628;2023-07-13T10:27:47;3.92;;;2.38;;
76204;SDS011;64986;55.672;37.628;2023-07-13T10:30:21;4.80;;;3.00;;
76204;SDS011;64986;55.672;37.628;2023-07-13T10:32:57;4.55;;;2.38;;
76204;SDS011;64986;55.672;37.628;2023-07-13T10:35:24;5.18;;;2.67;;
76204;SDS011;64986;55.672;37.628;2023-07-13T10:37:53;3.40;;;2.53;;
76204;SDS011;64986;55.672;37.628;2023-07-13T10:40:27;4.38;;;2.97;;
76204;SDS011;64986;55.672;37.628;2023-07-13T10:42:57;3.08;;;1.98;;
76204;SDS011;64986;55.672;37.628;2023-07-13T10:45:33;3.97;;;2.05;;
76204;SDS011;64986;55.672;37.628;2023-07-13T10:48:02;7.38;;;3.53;;
76204;SDS011;64986;55.672;37.628;2023-07-13T10:50:29;3.28;;;2.08;;
76204;SDS011;64986;55.672;37.628;2023-07-13T10:53:02;4.85;;;3.00;;
76204;SDS011;64986;55.672;37.628;2023-07-13T10:58:15;5.55;;;2.75;;
76204;SDS011;64986;55.672;37.628;2023-07-13T11:00:49;5.70;;;3.00;;
76204;SDS011;64986;55.672;37.628;2023-07-13T11:03:23;2.88;;;2.35;;
76204;SDS011;64986;55.672;37.628;2023-07-13T11:06:03;3.78;;;2.70;;
76204;SDS011;64986;55.672;37.628;2023-07-13T11:08:35;3.90;;;2.47;;
76204;SDS011;64986;55.672;37.628;2023-07-13T11:11:02;4.13;;;2.63;;
76204;SDS011;64986;55.672;37.628;2023-07-13T11:13:38;3.47;;;2.22;;
76204;SDS011;64986;55.672;37.628;2023-07-13T11:21:27;4.03;;;2.50;;
76204;SDS011;64986;55.672;37.628;2023-07-13T11:31:39;3.00;;;1.83;;
76204;SDS011;64986;55.672;37.628;2023-07-13T11:34:06;5.90;;;2.83;;
76204;SDS011;64986;55.672;37.628;2023-07-13T11:36:39;5.45;;;2.97;;
76204;SDS011;64986;55.672;37.628;2023-07-13T11:41:59;4.38;;;2.75;;
76204;SDS011;64986;55.672;37.628;2023-07-13T11:44:29;4.47;;;2.45;;
76204;SDS011;64986;55.672;37.628;2023-07-13T11:46:56;3.80;;;2.38;;
76204;SDS011;64986;55.672;37.628;2023-07-13T11:49:29;6.97;;;3.35;;
76204;SDS011;64986;55.672;37.628;2023-07-13T11:51:57;5.47;;;3.05;;
76204;SDS011;64986;55.672;37.628;2023-07-13T11:54:28;5.13;;;2.70;;
76204;SDS011;64986;55.672;37.628;2023-07-13T11:56:59;7.80;;;3.08;;
76204;SDS011;64986;55.672;37.628;2023-07-13T11:59:31;5.00;;;2.88;;
76204;SDS011;64986;55.672;37.628;2023-07-13T12:01:58;3.38;;;2.55;;
76204;SDS011;64986;55.672;37.628;2023-07-13T12:07:03;3.72;;;2.85;;
76204;SDS011;64986;55.672;37.628;2023-07-13T12:09:30;4.00;;;2.70;;
76204;SDS011;64986;55.672;37.628;2023-07-13T12:11:57;4.30;;;2.83;;
76204;SDS011;64986;55.672;37.628;2023-07-13T12:14:25;3.35;;;2.55;;
76204;SDS011;64986;55.672;37.628;2023-07-13T12:16:51;3.75;;;2.40;;
76204;SDS011;64986;55.672;37.628;2023-07-13T12:21:54;3.80;;;2.50;;
76204;SDS011;64986;55.672;37.628;2023-07-13T12:24:22;4.82;;;2.17;;
76204;SDS011;64986;55.672;37.628;2023-07-13T12:29:20;3.92;;;2.47;;
76204;SDS011;64986;55.672;37.628;2023-07-13T12:31:46;4.55;;;2.60;;
76204;SDS011;64986;55.672;37.628;2023-07-13T12:34:18;5.40;;;2.60;;
76204;SDS011;64986;55.672;37.628;2023-07-13T12:39:12;4.65;;;2.83;;
76204;SDS011;64986;55.672;37.628;2023-07-13T12:41:43;3.47;;;2.38;;
76204;SDS011;64986;55.672;37.628;2023-07-13T12:44:32;3.05;;;2.35;;
76204;SDS011;64986;55.672;37.628;2023-07-13T12:46:58;3.78;;;2.75;;
76204;SDS011;64986;55.672;37.628;2023-07-13T12:49:30;3.80;;;2.92;;
76204;SDS011;64986;55.672;37.628;2023-07-13T12:52:00;4.65;;;1.90;;
76204;SDS011;64986;55.672;37.628;2023-07-13T12:54:28;6.20;;;2.50;;
76204;SDS011;64986;55.672;37.628;2023-07-13T12:56:55;6.25;;;2.88;;
76204;SDS011;64986;55.672;37.628;2023-07-13T12:59:23;5.35;;;2.85;;
76204;SDS011;64986;55.672;37.628;2023-07-13T13:01:51;3.13;;;2.20;;
76204;SDS011;64986;55.672;37.628;2023-07-13T13:04:18;4.80;;;2.35;;
76204;SDS011;64986;55.672;37.628;2023-07-13T13:06:48;5.25;;;2.42;;
76204;SDS011;64986;55.672;37.628;2023-07-13T13:09:15;7.30;;;3.28;;
76204;SDS011;64986;55.672;37.628;2023-07-13T13:11:43;4.65;;;3.08;;
76204;SDS011;64986;55.672;37.628;2023-07-13T13:14:09;4.03;;;2.67;;
76204;SDS011;64986;55.672;37.628;2023-07-13T13:16:35;4.47;;;2.30;;
76204;SDS011;64986;55.672;37.628;2023-07-13T13:19:16;4.95;;;2.90;;
76204;SDS011;64986;55.672;37.628;2023-07-13T13:21:44;4.45;;;2.60;;
76204;SDS011;64986;55.672;37.628;2023-07-13T13:24:15;6.82;;;2.83;;
76204;SDS011;64986;55.672;37.628;2023-07-13T13:26:42;5.95;;;3.30;;
76204;SDS011;64986;55.672;37.628;2023-07-13T13:29:13;6.38;;;2.63;;
76204;SDS011;64986;55.672;37.628;2023-07-13T13:31:41;2.90;;;2.22;;
76204;SDS011;64986;55.672;37.628;2023-07-13T13:34:11;5.40;;;2.78;;
76204;SDS011;64986;55.672;37.628;2023-07-13T13:36:39;5.50;;;2.10;;
76204;SDS011;64986;55.672;37.628;2023-07-13T13:39:08;4.75;;;2.60;;
76204;SDS011;64986;55.672;37.628;2023-07-13T13:41:45;5.63;;;2.50;;
76204;SDS011;64986;55.672;37.628;2023-07-13T13:44:16;4.78;;;2.42;;
76204;SDS011;64986;55.672;37.628;2023-07-13T13:46:43;4.15;;;2.58;;
76204;SDS011;64986;55.672;37.628;2023-07-13T13:49:24;2.25;;;2.03;;
76204;SDS011;64986;55.672;37.628;2023-07-13T13:51:51;14.43;;;2.53;;
76204;SDS011;64986;55.672;37.628;2023-07-13T13:54:18;5.88;;;3.00;;
76204;SDS011;64986;55.672;37.628;2023-07-13T13:56:49;7.85;;;2.67;;
76204;SDS011;64986;55.672;37.628;2023-07-13T13:59:16;6.53;;;2.97;;
76204;SDS011;64986;55.672;37.628;2023-07-13T14:01:42;6.57;;;2.75;;
76204;SDS011;64986;55.672;37.628;2023-07-13T14:04:13;3.90;;;2.50;;
76204;SDS011;64986;55.672;37.628;2023-07-13T14:06:42;3.92;;;2.72;;
76204;SDS011;64986;55.672;37.628;2023-07-13T14:09:12;4.70;;;3.00;;
76204;SDS011;64986;55.672;37.628;2023-07-13T14:11:40;5.63;;;2.80;;
76204;SDS011;64986;55.672;37.628;2023-07-13T14:14:08;3.80;;;2.65;;
76204;SDS011;64986;55.672;37.628;2023-07-13T14:16:39;4.85;;;2.97;;
76204;SDS011;64986;55.672;37.628;2023-07-13T14:19:07;4.30;;;3.10;;
76204;SDS011;64986;55.672;37.628;2023-07-13T14:21:36;9.52;;;3.45;;
76204;SDS011;64986;55.672;37.628;2023-07-13T14:24:01;4.93;;;2.63;;
76204;SDS011;64986;55.672;37.628;2023-07-13T14:26:27;4.15;;;2.83;;
76204;SDS011;64986;55.672;37.628;2023-07-13T14:28:57;4.35;;;2.47;;
76204;SDS011;64986;55.672;37.628;2023-07-13T14:31:24;5.68;;;2.97;;
76204;SDS011;64986;55.672;37.628;2023-07-13T14:33:51;4.78;;;2.50;;
76204;SDS011;64986;55.672;37.628;2023-07-13T14:36:21;3.40;;;2.60;;
76204;SDS011;64986;55.672;37.628;2023-07-13T14:38:48;5.63;;;2.50;;
76204;SDS011;64986;55.672;37.628;2023-07-13T14:41:26;7.03;;;2.92;;
76204;SDS011;64986;55.672;37.628;2023-07-13T14:43:52;4.70;;;2.40;;
76204;SDS011;64986;55.672;37.628;2023-07-13T14:46:29;5.55;;;2.70;;
76204;SDS011;64986;55.672;37.628;2023-07-13T14:49:04;4.13;;;2.60;;
76204;SDS011;64986;55.672;37.628;2023-07-13T14:51:50;4.88;;;2.42;;
76204;SDS011;64986;55.672;37.628;2023-07-13T14:54:16;3.63;;;2.28;;
76204;SDS011;64986;55.672;37.628;2023-07-13T14:56:41;3.67;;;2.35;;
76204;SDS011;64986;55.672;37.628;2023-07-13T14:59:07;2.33;;;2.03;;
76204;SDS011;64986;55.672;37.628;2023-07-13T15:01:33;6.03;;;1.95;;
76204;SDS011;64986;55.672;37.628;2023-07-13T15:04:00;2.85;;;1.88;;
76204;SDS011;64986;55.672;37.628;2023-07-13T15:06:26;5.85;;;2.97;;
76204;SDS011;64986;55.672;37.628;2023-07-13T15:08:52;4.97;;;2.40;;
76204;SDS011;64986;55.672;37.628;2023-07-13T15:11:17;4.82;;;2.83;;
76204;SDS011;64986;55.672;37.628;2023-07-13T15:13:43;3.80;;;2.35;;
76204;SDS011;64986;55.672;37.628;2023-07-13T15:16:17;4.60;;;3.10;;
76204;SDS011;64986;55.672;37.628;2023-07-13T15:18:48;3.55;;;2.35;;
76204;SDS011;64986;55.672;37.628;2023-07-13T15:21:22;5.43;;;2.72;;
76204;SDS011;64986;55.672;37.628;2023-07-13T15:23:49;5.88;;;2.63;;
76204;SDS011;64986;55.672;37.628;2023-07-13T15:26:16;5.10;;;2.20;;
76204;SDS011;64986;55.672;37.628;2023-07-13T15:28:43;3.42;;;2.50;;
76204;SDS011;64986;55.672;37.628;2023-07-13T15:31:23;3.60;;;2.65;;
76204;SDS011;64986;55.672;37.628;2023-07-13T15:33:50;3.72;;;2.28;;
76204;SDS011;64986;55.672;37.628;2023-07-13T15:36:20;5.07;;;3.25;;
76204;SDS011;64986;55.672;37.628;2023-07-13T15:38:47;4.95;;;2.97;;